Flight Track Log - Related Links

Times and Time Zones

All times are in EDT time to prevent confusion due to time zone crossing. See the AAY846 flight status page for this flight to view local times or setup timezone preferences in your user account.

Time Position Orientation Groundspeed Altitude Reporting Facility
EDT Latitude Longitude Course Direction KTS MPH feet Rate Location/Type
Fri 08:55:48 AM 27.8833 -82.6833 180° South 158 182 1,100  Level Tampa TRACON
Fri 08:56:12 AM 27.8667 -82.6833 180° South 159 183 1,700 1,786 Climbing Tampa TRACON
Fri 08:57:12 AM 27.8167 -82.6833 180° South 212 244 3,600 2,050 Climbing Tampa TRACON
Fri 08:58:12 AM 27.8500 -82.7500 299° West 295 339 5,800 2,479 Climbing Tampa TRACON
Fri 08:59:13 AM 27.9333 -82.7500 360° North 289 333 8,600 1,949 Climbing Tampa TRACON
Fri 09:01:29 AM 28.1183 -82.6856 17° North 309 356 12,200 1,592 Climbing Jacksonville Center
Fri 09:02:29 AM 28.2269 -82.6711 North 354 407 13,800 1,900 Climbing Jacksonville Center
Fri 09:03:29 AM 28.3439 -82.6661 North 391 450 16,000 2,150 Climbing Jacksonville Center
Fri 09:04:29 AM 28.4606 -82.6611 North 411 473 18,100 2,000 Climbing Jacksonville Center
Fri 09:05:29 AM 28.5839 -82.6539 North 424 488 20,000 1,700 Climbing Jacksonville Center
Fri 09:06:29 AM 28.7089 -82.6464 North 435 501 21,500 1,550 Climbing Jacksonville Center
Fri 09:07:29 AM 28.8281 -82.6889 343° North 440 506 23,100 1,750 Climbing Jacksonville Center
Fri 09:08:29 AM 28.9428 -82.7503 335° Northwest 440 506 25,000 1,800 Climbing Jacksonville Center
Fri 09:09:29 AM 29.0556 -82.8072 336° Northwest 445 512 26,700 1,550 Climbing Jacksonville Center
Fri 09:10:29 AM 29.1706 -82.8689 335° Northwest 445 512 28,100 1,550 Climbing Jacksonville Center
Fri 09:11:29 AM 29.2833 -82.9258 336° Northwest 445 512 29,800 1,500 Climbing Jacksonville Center
Fri 09:12:29 AM 29.3917 -82.9808 336° Northwest 440 506 31,100 1,050 Climbing Jacksonville Center
Fri 09:13:29 AM 29.5064 -83.0431 335° Northwest 441 507 31,900 400 Climbing Jacksonville Center
Fri 09:14:29 AM 29.6192 -83.1003 336° Northwest 441 507 31,900  Level Jacksonville Center
Fri 09:15:29 AM 29.7275 -83.1581 335° Northwest 441 507 31,900  Level Jacksonville Center
Fri 09:16:29 AM 29.8297 -83.2086 337° Northwest 428 493 31,900  Level Jacksonville Center
Fri 09:17:29 AM 29.9506 -83.2714 336° Northwest 428 493 31,900  Level Jacksonville Center
Fri 09:18:29 AM 30.0633 -83.3294 336° Northwest 434 499 31,900  Level Jacksonville Center
Fri 09:19:29 AM 30.1778 -83.3875 336° Northwest 439 505 31,900  Level Jacksonville Center
Fri 09:20:29 AM 30.2883 -83.4458 336° Northwest 439 505 31,900  Level Jacksonville Center
Fri 09:21:29 AM 30.4028 -83.5067 335° Northwest 439 505 31,900  Level Jacksonville Center
Fri 09:22:29 AM 30.5028 -83.5581 336° Northwest 439 505 31,900 50 Level Jacksonville Center
Fri 09:23:29 AM 30.6153 -83.6167 336° Northwest 439 505 32,000 50 Climbing Jacksonville Center
Fri 09:24:29 AM 30.7297 -83.6781 335° Northwest 439 505 32,000  Level Jacksonville Center
Fri 09:25:29 AM 30.8419 -83.7394 335° Northwest 439 505 32,000  Level Jacksonville Center
Fri 09:26:29 AM 30.9564 -83.8011 335° Northwest 439 505 32,000  Level Jacksonville Center
Fri 09:27:29 AM 31.0708 -83.8578 337° Northwest 439 505 32,000  Level Jacksonville Center
Fri 09:28:29 AM 31.1853 -83.9222 334° Northwest 439 505 32,000  Level Jacksonville Center
Fri 09:30:39 AM 31.4356 -84.0558 336° Northwest 467 537 32,000  Level Atlanta Center
Fri 09:31:39 AM 31.5503 -84.1217 334° Northwest 461 531 32,000  Level Atlanta Center
Fri 09:32:39 AM 31.6756 -84.1878 336° Northwest 456 525 32,000  Level Atlanta Center
Fri 09:33:39 AM 31.7922 -84.2514 335° Northwest 456 525 32,000  Level Atlanta Center
Fri 09:34:39 AM 31.9069 -84.3128 336° Northwest 456 525 32,000  Level Atlanta Center
Fri 09:35:39 AM 32.0217 -84.3744 336° Northwest 456 525 32,000  Level Atlanta Center
Fri 09:36:39 AM 32.1342 -84.4386 334° Northwest 456 525 32,000  Level Atlanta Center
Fri 09:37:39 AM 32.2508 -84.5031 335° Northwest 456 525 32,000  Level Atlanta Center
Fri 09:38:39 AM 32.3653 -84.5650 335° Northwest 456 525 32,000  Level Atlanta Center
Fri 09:39:39 AM 32.4842 -84.6297 335° Northwest 456 525 32,000  Level Atlanta Center
Fri 09:40:39 AM 32.5986 -84.6897 336° Northwest 456 525 32,000  Level Atlanta Center
Fri 09:41:39 AM 32.7108 -84.7547 334° Northwest 451 519 32,000  Level Atlanta Center
Fri 09:42:39 AM 32.8150 -84.8150 334° Northwest 451 519 32,000  Level Atlanta Center
Fri 09:43:39 AM 32.9272 -84.8803 334° Northwest 446 513 32,000  Level Atlanta Center
Fri 09:44:39 AM 33.0353 -84.9383 336° Northwest 441 507 32,000  Level Atlanta Center
Fri 09:45:39 AM 33.1433 -84.9989 335° Northwest 441 507 32,000  Level Atlanta Center
Fri 09:46:39 AM 33.2661 -85.0675 335° Northwest 441 507 32,000  Level Atlanta Center
Fri 09:47:39 AM 33.3783 -85.1308 335° Northwest 441 507 32,000  Level Atlanta Center
Fri 09:48:39 AM 33.4883 -85.1919 335° Northwest 441 507 32,000  Level Atlanta Center
Fri 09:49:39 AM 33.6025 -85.2583 334° Northwest 441 507 32,000  Level Atlanta Center
Fri 09:50:39 AM 33.7167 -85.3200 336° Northwest 441 507 32,000  Level Atlanta Center
Fri 09:51:39 AM 33.8286 -85.3842 335° Northwest 446 513 32,000  Level Atlanta Center
Fri 09:52:39 AM 33.9406 -85.4486 334° Northwest 440 506 32,000  Level Atlanta Center
Fri 09:53:39 AM 34.0422 -85.5053 335° Northwest 440 506 32,000  Level Atlanta Center
Fri 09:54:39 AM 34.1500 -85.5700 334° Northwest 440 506 32,000  Level Atlanta Center
Fri 09:55:39 AM 34.2619 -85.6297 336° Northwest 440 506 32,000  Level Atlanta Center
Fri 09:56:39 AM 34.3781 -85.6950 335° Northwest 440 506 32,000  Level Atlanta Center
Fri 09:57:39 AM 34.4836 -85.7625 332° Northwest 434 499 32,000  Level Atlanta Center
Fri 09:58:39 AM 34.5994 -85.8228 337° Northwest 440 506 32,000  Level Atlanta Center
Fri 09:59:39 AM 34.7111 -85.8883 334° Northwest 445 512 32,000  Level Atlanta Center
Fri 10:00:36 AM 34.8269 -85.9597 333° Northwest 450 518 32,000  Level Memphis Center
Fri 10:01:38 AM 34.9389 -86.0239 335° Northwest 449 517 32,000  Level Memphis Center
Fri 10:02:39 AM 35.0531 -86.0931 334° Northwest 449 517 32,000  Level Memphis Center
Fri 10:03:41 AM 35.1678 -86.1608 334° Northwest 453 521 32,000  Level Memphis Center
Fri 10:04:43 AM 35.2833 -86.2283 335° Northwest 454 522 32,000  Level Memphis Center
Fri 10:05:44 AM 35.4000 -86.2981 334° Northwest 456 525 32,000  Level Memphis Center
Fri 10:06:46 AM 35.5369 -86.3800 334° Northwest 462 532 32,000  Level Memphis Center
Fri 10:07:48 AM 35.6550 -86.4511 334° Northwest 463 533 32,000  Level Memphis Center
Fri 10:08:49 AM 35.7728 -86.5214 334° Northwest 464 534 32,000  Level Memphis Center
Fri 10:09:51 AM 35.8911 -86.5925 334° Northwest 465 535 32,000  Level Memphis Center
Fri 10:10:53 AM 36.0094 -86.6647 334° Northwest 467 537 32,000  Level Memphis Center
Fri 10:11:54 AM 36.1272 -86.7364 334° Northwest 467 537 32,000  Level Memphis Center
Fri 10:12:56 AM 36.2464 -86.8086 334° Northwest 468 539 32,000  Level Memphis Center
Fri 10:13:58 AM 36.3642 -86.8819 333° Northwest 474 545 32,000  Level Memphis Center
Fri 10:14:59 AM 36.5003 -86.9625 335° Northwest 480 552 32,000  Level Memphis Center
Fri 10:16:01 AM 36.6225 -87.0383 334° Northwest 482 555 32,000  Level Memphis Center
Fri 10:17:03 AM 36.7458 -87.1150 334° Northwest 486 559 32,000  Level Memphis Center
Fri 10:18:04 AM 36.8692 -87.1914 334° Northwest 489 563 32,000  Level Memphis Center
Fri 10:19:06 AM 36.9953 -87.2703 333° Northwest 496 571 32,000  Level Memphis Center
Fri 10:20:08 AM 37.1186 -87.3481 333° Northwest 496 571 32,000  Level Memphis Center
Fri 10:21:10 AM 37.2458 -87.4269 334° Northwest 497 572 32,000  Level Memphis Center
Fri 10:22:11 AM 37.3928 -87.5200 333° Northwest 500 575 32,000  Level Memphis Center
Fri 10:23:13 AM 37.5200 -87.5992 334° Northwest 501 577 32,000  Level Memphis Center
Fri 10:24:15 AM 37.6456 -87.6800 333° Northwest 502 578 32,000  Level Memphis Center
Fri 10:25:17 AM 37.7694 -87.7592 333° Northwest 502 578 32,000  Level Memphis Center
Fri 10:26:19 AM 37.8969 -87.8400 333° Northwest 502 578 32,000  Level Memphis Center
Fri 10:27:20 AM 38.0183 -87.9186 333° Northwest 491 565 32,000  Level Memphis Center
Fri 10:28:22 AM 38.1397 -87.9969 333° Northwest 486 559 32,000  Level Memphis Center
Fri 10:29:28 AM 38.2814 -88.0875 333° Northwest 488 562 32,000 -837 Level Kansas City Center
Fri 10:30:31 AM 38.4047 -88.1689 333° Northwest 488 562 30,200 -2,053 Descending Kansas City Center
Fri 10:32:35 AM 38.6506 -88.3281 333° Northwest 489 563 25,600 -2,270 Descending Kansas City Center
Fri 10:33:36 AM 38.7656 -88.4025 333° Northwest 475 547 23,200 -2,274 Descending Kansas City Center
Fri 10:34:39 AM 38.8708 -88.4725 333° Northwest 441 507 20,900 -1,839 Descending Kansas City Center
Fri 10:35:40 AM 38.9689 -88.5392 332° Northwest 410 472 19,400 -1,306 Descending Kansas City Center
Fri 10:36:43 AM 39.0836 -88.6144 333° Northwest 389 448 18,200 -1,065 Descending Kansas City Center
Fri 10:37:44 AM 39.1617 -88.6661 333° Northwest 386 444 17,200 -1,082 Descending Kansas City Center
Fri 10:38:45 AM 39.2742 -88.7417 333° Northwest 384 442 16,000 -590 Descending Kansas City Center
Fri 10:39:46 AM 39.3683 -88.8033 333° Northwest 384 442 16,000  Level Kansas City Center
Fri 10:40:50 AM 39.4608 -88.8675 332° Northwest 384 442 16,000  Level Kansas City Center
Fri 10:41:51 AM 39.5556 -88.9303 333° Northwest 384 442 16,000 48 Level Kansas City Center
Fri 10:42:54 AM 39.6500 -88.9942 332° Northwest 384 442 16,100  Climbing Kansas City Center
Fri 10:43:56 AM 39.7439 -89.0597 332° Northwest 384 442 16,000 -246 Descending Kansas City Center
Fri 10:44:56 AM 39.8569 -89.1356 333° Northwest 383 441 15,600 -581 Descending Kansas City Center
Fri 10:46:00 AM 39.9500 -89.1972 333° Northwest 381 438 14,800 -768 Descending Kansas City Center
Fri 10:47:01 AM 40.0417 -89.2619 332° Northwest 379 436 14,000 -793 Descending Kansas City Center
Fri 10:48:01 AM 40.1317 -89.3219 333° Northwest 369 425 13,200 -1,161 Descending Kansas City Center
Fri 10:49:05 AM 40.2258 -89.3508 347° North 353 406 11,600 -1,452 Descending Kansas City Center
Fri 10:50:05 AM 40.3133 -89.3797 346° North 331 381 10,200 -1,645 Descending Kansas City Center
Fri 10:51:09 AM 40.3894 -89.4003 348° North 289 333 8,200 -2,016 Descending Kansas City Center
Fri 10:52:10 AM 40.4781 -89.4233 349° North 278 320 6,000 -2,115 Descending Kansas City Center
Fri 10:53:11 AM 40.5325 -89.4603 333° Northwest 253 291 3,900 -1,770 Descending Kansas City Center
Fri 10:54:12 AM 40.5667 -89.5253 305° West 227 261 2,400 -720 Descending Kansas City Center
Fri 10:55:16 AM 40.5992 -89.5825 307° West 209 241 2,400 -286 Level Kansas City Center
Fri 10:56:18 AM 40.6261 -89.6300 307° West 181 208 1,800 -683 Descending Kansas City Center
Fri 10:57:19 AM 40.6489 -89.6706 307° West 158 182 1,000 -590 Descending Kansas City Center
Fri 10:58:20 AM 40.6736 -89.7142 307° West 147 169 600 -393 Descending Kansas City Center

Login

Don't have an account? Register now (free) for customized features, flight alerts, and more!